CEB229 RPVM-RPVP
Flight info
| Callsign | CEB229 |
|---|---|
| Flight time | 1h 8m |
| Altitude | 38000 |
| Route | KEVAN4N KEVAN TR2 BCD TR6 IOO W17 ZENNY ZENNY2W |
| Aircraft | A20N/M-SDE3FGHIRWY/LB1 |
Departure
| Time | 2026-04-21 01:55 |
|---|---|
| Airport | Mactan Cebu International Airport (RPVM) |
Arrival
| Time | 2026-04-21 03:03 |
|---|---|
| Airport | Puerto Princesa International Airport / PAF Antonio Bautista Air Base (RPVP) |
| Time | Latitude | Longitude | Altitude | Speed | Heading |
|---|---|---|---|---|---|
| 2026-04-21 01:31 | 10.31508 | 123.97926 | 47 ft | 0 kts | 315° |
| 2026-04-21 01:44 | 10.31501 | 123.97933 | 47 ft | 2 kts | 314° |
| 2026-04-21 01:45 | 10.31490 | 123.97944 | 46 ft | 2 kts | 315° |
| 2026-04-21 01:45 | 10.31480 | 123.97955 | 46 ft | 2 kts | 315° |
| 2026-04-21 01:45 | 10.31469 | 123.97965 | 46 ft | 2 kts | 315° |
| 2026-04-21 01:45 | 10.31462 | 123.97972 | 46 ft | 1 kts | 316° |
| 2026-04-21 01:46 | 10.31455 | 123.97985 | 46 ft | 2 kts | 271° |
| 2026-04-21 01:46 | 10.31458 | 123.98000 | 45 ft | 1 kts | 233° |
| 2026-04-21 01:46 | 10.31463 | 123.98004 | 45 ft | 1 kts | 219° |
| 2026-04-21 01:46 | 10.31466 | 123.98007 | 45 ft | 0 kts | 224° |
| 2026-04-21 01:49 | 10.31461 | 123.98003 | 45 ft | 1 kts | 224° |
| 2026-04-21 01:49 | 10.31451 | 123.97993 | 46 ft | 2 kts | 224° |
| 2026-04-21 01:49 | 10.31444 | 123.97986 | 46 ft | 2 kts | 224° |
| 2026-04-21 01:50 | 10.31420 | 123.97961 | 46 ft | 7 kts | 226° |
| 2026-04-21 01:50 | 10.31374 | 123.97915 | 47 ft | 9 kts | 221° |
| 2026-04-21 01:50 | 10.31310 | 123.97913 | 46 ft | 10 kts | 143° |
| 2026-04-21 01:50 | 10.31245 | 123.97977 | 42 ft | 13 kts | 135° |
| 2026-04-21 01:51 | 10.31181 | 123.97961 | 40 ft | 12 kts | 225° |
| 2026-04-21 01:51 | 10.31119 | 123.97899 | 41 ft | 12 kts | 225° |
| 2026-04-21 01:51 | 10.31056 | 123.97835 | 42 ft | 12 kts | 225° |
| 2026-04-21 01:51 | 10.30992 | 123.97771 | 41 ft | 13 kts | 225° |
| 2026-04-21 01:52 | 10.30914 | 123.97692 | 38 ft | 17 kts | 225° |
| 2026-04-21 01:52 | 10.30719 | 123.97495 | 30 ft | 22 kts | 225° |
| 2026-04-21 01:52 | 10.30608 | 123.97385 | 28 ft | 22 kts | 225° |
| 2026-04-21 01:53 | 10.30495 | 123.97272 | 26 ft | 20 kts | 225° |
| 2026-04-21 01:53 | 10.30406 | 123.97182 | 26 ft | 11 kts | 225° |
| 2026-04-21 01:53 | 10.30341 | 123.97170 | 24 ft | 10 kts | 146° |
| 2026-04-21 01:53 | 10.30304 | 123.97210 | 24 ft | 4 kts | 94° |
| 2026-04-21 01:54 | 10.30310 | 123.97223 | 24 ft | 0 kts | 46° |
| 2026-04-21 01:54 | 10.30394 | 123.97309 | 25 ft | 52 kts | 44° |
| 2026-04-21 01:54 | 10.30825 | 123.97742 | 38 ft | 119 kts | 45° |
| 2026-04-21 01:54 | 10.31539 | 123.98447 | 232 ft | 155 kts | 44° |
| 2026-04-21 01:55 | 10.32306 | 123.99223 | 841 ft | 159 kts | 45° |
| 2026-04-21 01:55 | 10.33078 | 124.00011 | 1496 ft | 161 kts | 45° |
| 2026-04-21 01:55 | 10.33907 | 124.00853 | 1918 ft | 176 kts | 45° |
| 2026-04-21 01:55 | 10.34814 | 124.01775 | 2337 ft | 193 kts | 45° |
| 2026-04-21 01:56 | 10.35981 | 124.02561 | 2734 ft | 214 kts | 17° |
| 2026-04-21 01:56 | 10.37558 | 124.02415 | 3065 ft | 247 kts | 336° |
| 2026-04-21 01:56 | 10.38846 | 124.01193 | 3573 ft | 271 kts | 300° |
| 2026-04-21 01:56 | 10.39429 | 123.99339 | 4341 ft | 280 kts | 282° |
| 2026-04-21 01:57 | 10.39771 | 123.97392 | 5236 ft | 283 kts | 281° |
| 2026-04-21 01:57 | 10.39982 | 123.95439 | 6180 ft | 284 kts | 271° |
| 2026-04-21 01:57 | 10.39919 | 123.93494 | 7342 ft | 274 kts | 266° |
| 2026-04-21 01:57 | 10.39812 | 123.91626 | 8491 ft | 263 kts | 266° |
| 2026-04-21 01:58 | 10.39726 | 123.89830 | 9548 ft | 255 kts | 267° |
| 2026-04-21 01:58 | 10.39664 | 123.88030 | 10398 ft | 255 kts | 267° |
| 2026-04-21 01:58 | 10.39618 | 123.86252 | 11187 ft | 256 kts | 267° |
| 2026-04-21 01:58 | 10.39579 | 123.84448 | 11941 ft | 257 kts | 266° |
| 2026-04-21 01:59 | 10.39541 | 123.82653 | 12676 ft | 258 kts | 266° |
| 2026-04-21 01:59 | 10.39493 | 123.80849 | 13391 ft | 259 kts | 265° |
| 2026-04-21 01:59 | 10.39414 | 123.79033 | 14067 ft | 261 kts | 265° |
| 2026-04-21 01:59 | 10.39327 | 123.77178 | 14713 ft | 263 kts | 265° |
| 2026-04-21 02:00 | 10.39242 | 123.75329 | 15338 ft | 266 kts | 265° |
| 2026-04-21 02:00 | 10.39160 | 123.73459 | 15953 ft | 269 kts | 266° |
| 2026-04-21 02:00 | 10.39079 | 123.71561 | 16553 ft | 272 kts | 266° |
| 2026-04-21 02:00 | 10.38995 | 123.69627 | 17140 ft | 274 kts | 266° |
| 2026-04-21 02:01 | 10.38912 | 123.67693 | 17710 ft | 277 kts | 266° |
| 2026-04-21 02:01 | 10.38829 | 123.65739 | 18280 ft | 280 kts | 266° |
| 2026-04-21 02:01 | 10.38745 | 123.63745 | 18852 ft | 282 kts | 266° |
| 2026-04-21 02:01 | 10.38661 | 123.61777 | 19394 ft | 284 kts | 266° |
| 2026-04-21 02:02 | 10.38574 | 123.59757 | 19929 ft | 287 kts | 266° |
| 2026-04-21 02:02 | 10.38487 | 123.57731 | 20460 ft | 290 kts | 266° |
| 2026-04-21 02:02 | 10.38398 | 123.55696 | 20977 ft | 293 kts | 266° |
| 2026-04-21 02:02 | 10.38309 | 123.53620 | 21495 ft | 296 kts | 266° |
| 2026-04-21 02:03 | 10.38218 | 123.51509 | 22010 ft | 299 kts | 266° |
| 2026-04-21 02:03 | 10.38125 | 123.49375 | 22331 ft | 310 kts | 266° |
| 2026-04-21 02:03 | 10.38027 | 123.47155 | 22576 ft | 324 kts | 266° |
| 2026-04-21 02:03 | 10.37925 | 123.44815 | 22824 ft | 337 kts | 266° |
| 2026-04-21 02:04 | 10.37820 | 123.42389 | 23067 ft | 351 kts | 266° |
| 2026-04-21 02:04 | 10.37711 | 123.39895 | 23299 ft | 363 kts | 266° |
| 2026-04-21 02:04 | 10.37598 | 123.37287 | 23523 ft | 376 kts | 266° |
| 2026-04-21 02:04 | 10.37479 | 123.34579 | 23741 ft | 388 kts | 266° |
| 2026-04-21 02:05 | 10.37359 | 123.31829 | 23951 ft | 400 kts | 266° |
| 2026-04-21 02:05 | 10.37233 | 123.28963 | 24160 ft | 411 kts | 266° |
| 2026-04-21 02:05 | 10.37106 | 123.26036 | 24492 ft | 418 kts | 266° |
| 2026-04-21 02:05 | 10.36975 | 123.23073 | 24949 ft | 421 kts | 266° |
| 2026-04-21 02:06 | 10.36844 | 123.20106 | 25417 ft | 424 kts | 266° |
| 2026-04-21 02:06 | 10.36711 | 123.17093 | 25870 ft | 427 kts | 266° |
| 2026-04-21 02:06 | 10.36578 | 123.14105 | 26307 ft | 431 kts | 266° |
| 2026-04-21 02:06 | 10.36441 | 123.11046 | 26751 ft | 433 kts | 266° |
| 2026-04-21 02:07 | 10.36304 | 123.07965 | 27167 ft | 437 kts | 266° |
| 2026-04-21 02:07 | 10.36167 | 123.04881 | 27349 ft | 446 kts | 266° |
| 2026-04-21 02:07 | 10.36024 | 123.01701 | 27507 ft | 454 kts | 266° |
| 2026-04-21 02:07 | 10.35880 | 122.98495 | 27710 ft | 461 kts | 266° |
| 2026-04-21 02:08 | 10.35732 | 122.95225 | 28026 ft | 464 kts | 266° |
| 2026-04-21 02:08 | 10.35585 | 122.91956 | 28355 ft | 467 kts | 266° |
| 2026-04-21 02:08 | 10.35437 | 122.88666 | 28669 ft | 469 kts | 266° |
| 2026-04-21 02:08 | 10.35287 | 122.85365 | 28988 ft | 471 kts | 266° |
| 2026-04-21 02:09 | 10.35136 | 122.82027 | 29381 ft | 470 kts | 266° |
| 2026-04-21 02:09 | 10.34988 | 122.78777 | 30121 ft | 461 kts | 266° |
| 2026-04-21 02:09 | 10.34841 | 122.75549 | 30947 ft | 451 kts | 266° |
| 2026-04-21 02:09 | 10.34700 | 122.72446 | 31763 ft | 440 kts | 266° |
| 2026-04-21 02:10 | 10.34559 | 122.69364 | 32601 ft | 429 kts | 266° |
| 2026-04-21 02:10 | 10.34421 | 122.66393 | 33324 ft | 423 kts | 266° |
| 2026-04-21 02:10 | 10.34148 | 122.63385 | 33796 ft | 421 kts | 262° |
| 2026-04-21 02:10 | 10.33785 | 122.60461 | 34564 ft | 413 kts | 262° |
| 2026-04-21 02:11 | 10.33421 | 122.57587 | 35384 ft | 403 kts | 262° |
| 2026-04-21 02:11 | 10.33082 | 122.54807 | 35856 ft | 401 kts | 262° |
| 2026-04-21 02:11 | 10.32746 | 122.51960 | 35949 ft | 408 kts | 262° |
| 2026-04-21 02:12 | 10.32036 | 122.46143 | 35951 ft | 425 kts | 262° |
| 2026-04-21 02:12 | 10.31287 | 122.40079 | 35948 ft | 440 kts | 262° |
| 2026-04-21 02:13 | 10.30518 | 122.33828 | 35946 ft | 453 kts | 262° |
| 2026-04-21 02:13 | 10.29730 | 122.27415 | 35942 ft | 462 kts | 262° |
| 2026-04-21 02:14 | 10.28938 | 122.20971 | 35940 ft | 463 kts | 262° |
| 2026-04-21 02:14 | 10.28142 | 122.14504 | 35938 ft | 462 kts | 262° |
| 2026-04-21 02:15 | 10.27345 | 122.08049 | 35936 ft | 461 kts | 262° |
| 2026-04-21 02:15 | 10.26546 | 122.01604 | 35935 ft | 461 kts | 262° |
| 2026-04-21 02:16 | 10.25746 | 121.95155 | 35933 ft | 462 kts | 262° |
| 2026-04-21 02:16 | 10.24939 | 121.88681 | 35932 ft | 462 kts | 262° |
| 2026-04-21 02:17 | 10.24135 | 121.82230 | 35932 ft | 462 kts | 262° |
| 2026-04-21 02:17 | 10.23331 | 121.75777 | 35932 ft | 461 kts | 262° |
| 2026-04-21 02:18 | 10.22528 | 121.69341 | 35932 ft | 461 kts | 262° |
| 2026-04-21 02:18 | 10.21725 | 121.62907 | 35933 ft | 460 kts | 262° |
| 2026-04-21 02:19 | 10.20922 | 121.56488 | 35937 ft | 459 kts | 262° |
| 2026-04-21 02:19 | 10.20118 | 121.50071 | 35939 ft | 459 kts | 262° |
| 2026-04-21 02:20 | 10.19313 | 121.43653 | 35942 ft | 459 kts | 262° |
| 2026-04-21 02:20 | 10.18504 | 121.37240 | 35943 ft | 459 kts | 262° |
| 2026-04-21 02:21 | 10.17690 | 121.30798 | 35947 ft | 458 kts | 262° |
| 2026-04-21 02:21 | 10.16884 | 121.24412 | 35951 ft | 458 kts | 262° |
| 2026-04-21 02:22 | 10.16076 | 121.18012 | 35951 ft | 458 kts | 262° |
| 2026-04-21 02:22 | 10.15268 | 121.11615 | 35952 ft | 458 kts | 262° |
| 2026-04-21 02:23 | 10.14459 | 121.05235 | 35953 ft | 458 kts | 262° |
| 2026-04-21 02:23 | 10.13644 | 120.98828 | 35950 ft | 458 kts | 262° |
| 2026-04-21 02:24 | 10.12834 | 120.92468 | 35943 ft | 457 kts | 262° |
| 2026-04-21 02:24 | 10.12018 | 120.86073 | 35936 ft | 457 kts | 262° |
| 2026-04-21 02:25 | 10.11201 | 120.79676 | 35935 ft | 457 kts | 262° |
| 2026-04-21 02:25 | 10.10391 | 120.73336 | 35933 ft | 456 kts | 262° |
| 2026-04-21 02:26 | 10.09575 | 120.66952 | 35655 ft | 457 kts | 262° |
| 2026-04-21 02:26 | 10.09167 | 120.63766 | 35126 ft | 457 kts | 262° |
| 2026-04-21 02:26 | 10.08755 | 120.60551 | 34514 ft | 459 kts | 262° |
| 2026-04-21 02:26 | 10.08346 | 120.57362 | 33850 ft | 461 kts | 262° |
| 2026-04-21 02:27 | 10.07929 | 120.54113 | 33157 ft | 464 kts | 262° |
| 2026-04-21 02:27 | 10.07512 | 120.50865 | 32464 ft | 466 kts | 261° |
| 2026-04-21 02:27 | 10.07094 | 120.47615 | 31766 ft | 468 kts | 261° |
| 2026-04-21 02:27 | 10.06676 | 120.44369 | 31028 ft | 470 kts | 261° |
| 2026-04-21 02:28 | 10.06249 | 120.41068 | 30246 ft | 471 kts | 262° |
| 2026-04-21 02:28 | 10.05823 | 120.37778 | 29439 ft | 468 kts | 262° |
| 2026-04-21 02:28 | 10.05404 | 120.34528 | 28642 ft | 465 kts | 262° |
| 2026-04-21 02:28 | 10.04993 | 120.31340 | 28135 ft | 457 kts | 262° |
| 2026-04-21 02:29 | 10.04583 | 120.28141 | 27593 ft | 451 kts | 261° |
| 2026-04-21 02:29 | 10.04039 | 120.25044 | 26976 ft | 447 kts | 255° |
| 2026-04-21 02:29 | 10.03246 | 120.21991 | 26295 ft | 445 kts | 253° |
| 2026-04-21 02:29 | 10.02411 | 120.19000 | 25645 ft | 442 kts | 253° |
| 2026-04-21 02:30 | 10.01588 | 120.16036 | 24992 ft | 440 kts | 253° |
| 2026-04-21 02:30 | 10.00773 | 120.13048 | 24335 ft | 437 kts | 253° |
| 2026-04-21 02:30 | 9.99976 | 120.10077 | 23717 ft | 434 kts | 253° |
| 2026-04-21 02:30 | 9.99193 | 120.07123 | 23127 ft | 430 kts | 253° |
| 2026-04-21 02:31 | 9.98433 | 120.04238 | 22565 ft | 426 kts | 253° |
| 2026-04-21 02:31 | 9.97672 | 120.01334 | 21998 ft | 422 kts | 253° |
| 2026-04-21 02:31 | 9.96928 | 119.98498 | 21432 ft | 419 kts | 253° |
| 2026-04-21 02:31 | 9.96186 | 119.95661 | 20843 ft | 417 kts | 253° |
| 2026-04-21 02:32 | 9.95439 | 119.92808 | 20232 ft | 415 kts | 253° |
| 2026-04-21 02:32 | 9.94706 | 119.90008 | 19622 ft | 414 kts | 253° |
| 2026-04-21 02:32 | 9.93974 | 119.87209 | 19017 ft | 411 kts | 253° |
| 2026-04-21 02:32 | 9.93237 | 119.84394 | 18403 ft | 409 kts | 254° |
| 2026-04-21 02:33 | 9.92515 | 119.81633 | 17799 ft | 407 kts | 253° |
| 2026-04-21 02:33 | 9.91796 | 119.78886 | 17205 ft | 405 kts | 254° |
| 2026-04-21 02:33 | 9.91071 | 119.76117 | 16598 ft | 403 kts | 254° |
| 2026-04-21 02:33 | 9.90360 | 119.73411 | 15963 ft | 402 kts | 254° |
| 2026-04-21 02:34 | 9.89642 | 119.70670 | 15311 ft | 401 kts | 254° |
| 2026-04-21 02:34 | 9.88926 | 119.67940 | 14648 ft | 401 kts | 255° |
| 2026-04-21 02:34 | 9.88215 | 119.65233 | 13980 ft | 400 kts | 255° |
| 2026-04-21 02:34 | 9.87503 | 119.62521 | 13332 ft | 399 kts | 255° |
| 2026-04-21 02:35 | 9.86787 | 119.59787 | 12684 ft | 397 kts | 255° |
| 2026-04-21 02:35 | 9.86089 | 119.57122 | 12085 ft | 394 kts | 255° |
| 2026-04-21 02:35 | 9.85385 | 119.54433 | 11489 ft | 391 kts | 255° |
| 2026-04-21 02:35 | 9.84697 | 119.51807 | 10997 ft | 385 kts | 255° |
| 2026-04-21 02:36 | 9.84017 | 119.49214 | 10692 ft | 373 kts | 255° |
| 2026-04-21 02:36 | 9.83366 | 119.46734 | 10479 ft | 360 kts | 255° |
| 2026-04-21 02:36 | 9.82731 | 119.44314 | 10273 ft | 348 kts | 255° |
| 2026-04-21 02:36 | 9.82115 | 119.41969 | 10074 ft | 336 kts | 255° |
| 2026-04-21 02:37 | 9.81526 | 119.39723 | 9842 ft | 327 kts | 255° |
| 2026-04-21 02:37 | 9.80949 | 119.37528 | 9542 ft | 321 kts | 255° |
| 2026-04-21 02:37 | 9.80372 | 119.35335 | 9218 ft | 316 kts | 255° |
| 2026-04-21 02:37 | 9.79815 | 119.33222 | 8823 ft | 307 kts | 255° |
| 2026-04-21 02:38 | 9.79276 | 119.31175 | 8371 ft | 296 kts | 255° |
| 2026-04-21 02:38 | 9.78750 | 119.29175 | 7990 ft | 289 kts | 255° |
| 2026-04-21 02:38 | 9.78235 | 119.27220 | 7617 ft | 288 kts | 255° |
| 2026-04-21 02:38 | 9.77721 | 119.25269 | 7271 ft | 288 kts | 255° |
| 2026-04-21 02:39 | 9.77201 | 119.23296 | 6920 ft | 287 kts | 255° |
| 2026-04-21 02:39 | 9.76687 | 119.21343 | 6571 ft | 287 kts | 255° |
| 2026-04-21 02:39 | 9.76172 | 119.19387 | 6216 ft | 286 kts | 255° |
| 2026-04-21 02:39 | 9.75662 | 119.17454 | 5876 ft | 285 kts | 255° |
| 2026-04-21 02:40 | 9.75149 | 119.15510 | 5531 ft | 284 kts | 255° |
| 2026-04-21 02:40 | 9.74642 | 119.13590 | 5178 ft | 283 kts | 255° |
| 2026-04-21 02:40 | 9.74130 | 119.11654 | 4825 ft | 282 kts | 255° |
| 2026-04-21 02:40 | 9.73625 | 119.09741 | 4483 ft | 281 kts | 255° |
| 2026-04-21 02:41 | 9.73141 | 119.07858 | 4137 ft | 274 kts | 258° |
| 2026-04-21 02:41 | 9.72894 | 119.05969 | 3798 ft | 265 kts | 268° |
| 2026-04-21 02:41 | 9.72914 | 119.04107 | 3472 ft | 262 kts | 273° |
| 2026-04-21 02:41 | 9.73005 | 119.02286 | 3246 ft | 256 kts | 274° |
| 2026-04-21 02:42 | 9.73099 | 119.00531 | 3197 ft | 243 kts | 274° |
| 2026-04-21 02:42 | 9.73183 | 118.98859 | 3153 ft | 232 kts | 274° |
| 2026-04-21 02:42 | 9.73263 | 118.97212 | 3107 ft | 229 kts | 274° |
| 2026-04-21 02:42 | 9.73333 | 118.95683 | 3108 ft | 208 kts | 274° |
| 2026-04-21 02:43 | 9.73395 | 118.94285 | 3059 ft | 185 kts | 274° |
| 2026-04-21 02:43 | 9.73449 | 118.93039 | 2898 ft | 169 kts | 274° |
| 2026-04-21 02:43 | 9.73501 | 118.91868 | 2796 ft | 166 kts | 274° |
| 2026-04-21 02:43 | 9.73555 | 118.90704 | 2700 ft | 166 kts | 274° |
| 2026-04-21 02:44 | 9.73608 | 118.89535 | 2471 ft | 165 kts | 274° |
| 2026-04-21 02:44 | 9.73660 | 118.88363 | 2240 ft | 165 kts | 274° |
| 2026-04-21 02:44 | 9.73710 | 118.87212 | 2025 ft | 164 kts | 273° |
| 2026-04-21 02:44 | 9.73759 | 118.86068 | 1804 ft | 163 kts | 273° |
| 2026-04-21 02:45 | 9.73808 | 118.84920 | 1589 ft | 162 kts | 274° |
| 2026-04-21 02:45 | 9.73857 | 118.83781 | 1373 ft | 161 kts | 274° |
| 2026-04-21 02:45 | 9.73907 | 118.82649 | 1160 ft | 160 kts | 274° |
| 2026-04-21 02:45 | 9.73957 | 118.81530 | 949 ft | 159 kts | 273° |
| 2026-04-21 02:46 | 9.74005 | 118.80407 | 839 ft | 158 kts | 272° |
| 2026-04-21 02:46 | 9.73785 | 118.79330 | 828 ft | 158 kts | 240° |
| 2026-04-21 02:46 | 9.73150 | 118.78410 | 841 ft | 158 kts | 230° |
| 2026-04-21 02:46 | 9.72447 | 118.77534 | 843 ft | 158 kts | 228° |
| 2026-04-21 02:47 | 9.71738 | 118.76662 | 841 ft | 158 kts | 228° |
| 2026-04-21 02:47 | 9.71174 | 118.75719 | 827 ft | 160 kts | 256° |
| 2026-04-21 02:47 | 9.71078 | 118.74604 | 843 ft | 160 kts | 270° |
| 2026-04-21 02:47 | 9.71096 | 118.73465 | 845 ft | 159 kts | 272° |
| 2026-04-21 02:48 | 9.71132 | 118.72337 | 847 ft | 159 kts | 272° |
| 2026-04-21 02:48 | 9.71192 | 118.71217 | 856 ft | 158 kts | 281° |
| 2026-04-21 02:48 | 9.71763 | 118.70326 | 811 ft | 153 kts | 337° |
| 2026-04-21 02:48 | 9.72747 | 118.70367 | 772 ft | 142 kts | 36° |
| 2026-04-21 02:49 | 9.73574 | 118.70952 | 804 ft | 143 kts | 36° |
| 2026-04-21 02:49 | 9.74268 | 118.71624 | 800 ft | 134 kts | 66° |
| 2026-04-21 02:49 | 9.74360 | 118.72530 | 599 ft | 128 kts | 95° |
| 2026-04-21 02:49 | 9.74317 | 118.73424 | 377 ft | 126 kts | 91° |
| 2026-04-21 02:50 | 9.74281 | 118.74305 | 215 ft | 126 kts | 92° |
| 2026-04-21 02:50 | 9.74244 | 118.75203 | 89 ft | 132 kts | 91° |
| 2026-04-21 02:50 | 9.74243 | 118.76168 | 565 ft | 134 kts | 90° |
| 2026-04-21 02:50 | 9.74222 | 118.77105 | 1061 ft | 134 kts | 91° |
| 2026-04-21 02:51 | 9.74190 | 118.78034 | 1561 ft | 134 kts | 91° |
| 2026-04-21 02:51 | 9.74148 | 118.78960 | 2009 ft | 132 kts | 94° |
| 2026-04-21 02:51 | 9.73796 | 118.79825 | 2353 ft | 139 kts | 125° |
| 2026-04-21 02:51 | 9.73079 | 118.80595 | 2460 ft | 164 kts | 132° |
| 2026-04-21 02:52 | 9.72175 | 118.81477 | 2497 ft | 195 kts | 133° |
| 2026-04-21 02:52 | 9.71127 | 118.82488 | 2447 ft | 211 kts | 133° |
| 2026-04-21 02:52 | 9.70099 | 118.83543 | 2448 ft | 209 kts | 122° |
| 2026-04-21 02:52 | 9.69531 | 118.84904 | 2477 ft | 221 kts | 103° |
| 2026-04-21 02:53 | 9.69197 | 118.86485 | 2480 ft | 231 kts | 99° |
| 2026-04-21 02:53 | 9.68959 | 118.88088 | 2476 ft | 232 kts | 95° |
| 2026-04-21 02:53 | 9.68811 | 118.89732 | 2476 ft | 232 kts | 94° |
| 2026-04-21 02:53 | 9.68685 | 118.91357 | 2473 ft | 232 kts | 93° |
| 2026-04-21 02:54 | 9.68566 | 118.92982 | 2475 ft | 230 kts | 93° |
| 2026-04-21 02:54 | 9.68426 | 118.94923 | 2470 ft | 212 kts | 93° |
| 2026-04-21 02:54 | 9.68395 | 118.96371 | 2463 ft | 202 kts | 78° |
| 2026-04-21 02:54 | 9.69078 | 118.97540 | 2442 ft | 190 kts | 40° |
| 2026-04-21 02:55 | 9.70271 | 118.98112 | 2463 ft | 194 kts | 13° |
| 2026-04-21 02:55 | 9.71640 | 118.98081 | 2466 ft | 199 kts | 345° |
| 2026-04-21 02:55 | 9.72787 | 118.97341 | 2533 ft | 192 kts | 315° |
| 2026-04-21 02:55 | 9.73376 | 118.96182 | 2477 ft | 180 kts | 283° |
| 2026-04-21 02:56 | 9.73484 | 118.94981 | 2449 ft | 165 kts | 273° |
| 2026-04-21 02:56 | 9.73511 | 118.92654 | 2464 ft | 165 kts | 272° |
| 2026-04-21 02:56 | 9.73539 | 118.91485 | 2465 ft | 165 kts | 273° |
| 2026-04-21 02:57 | 9.73579 | 118.90327 | 2466 ft | 165 kts | 273° |
| 2026-04-21 02:57 | 9.73625 | 118.89158 | 2329 ft | 164 kts | 273° |
| 2026-04-21 02:57 | 9.73674 | 118.88013 | 2136 ft | 163 kts | 273° |
| 2026-04-21 02:57 | 9.73724 | 118.86857 | 1927 ft | 162 kts | 273° |
| 2026-04-21 02:58 | 9.73774 | 118.85715 | 1714 ft | 162 kts | 273° |
| 2026-04-21 02:58 | 9.73822 | 118.84577 | 1502 ft | 162 kts | 273° |
| 2026-04-21 02:58 | 9.73872 | 118.83437 | 1289 ft | 161 kts | 273° |
| 2026-04-21 02:58 | 9.73921 | 118.82304 | 1077 ft | 161 kts | 273° |
| 2026-04-21 02:59 | 9.73969 | 118.81177 | 871 ft | 159 kts | 273° |
| 2026-04-21 02:59 | 9.74118 | 118.80070 | 840 ft | 158 kts | 297° |
| 2026-04-21 02:59 | 9.74758 | 118.79173 | 856 ft | 156 kts | 315° |
| 2026-04-21 02:59 | 9.75507 | 118.78379 | 858 ft | 156 kts | 318° |
| 2026-04-21 03:00 | 9.76280 | 118.77589 | 857 ft | 156 kts | 318° |
| 2026-04-21 03:00 | 9.76984 | 118.76754 | 846 ft | 158 kts | 297° |
| 2026-04-21 03:00 | 9.77216 | 118.75651 | 859 ft | 160 kts | 275° |
| 2026-04-21 03:00 | 9.77258 | 118.74519 | 859 ft | 160 kts | 271° |
| 2026-04-21 03:01 | 9.77270 | 118.73376 | 856 ft | 160 kts | 270° |
| 2026-04-21 03:01 | 9.77272 | 118.72242 | 873 ft | 160 kts | 261° |
| 2026-04-21 03:01 | 9.76703 | 118.71327 | 795 ft | 154 kts | 204° |
| 2026-04-21 03:01 | 9.75683 | 118.71079 | 790 ft | 148 kts | 172° |
| 2026-04-21 03:02 | 9.74773 | 118.71416 | 734 ft | 135 kts | 133° |
| 2026-04-21 03:02 | 9.74391 | 118.72224 | 522 ft | 125 kts | 96° |
| 2026-04-21 03:02 | 9.74327 | 118.73093 | 424 ft | 125 kts | 92° |
| 2026-04-21 03:02 | 9.74299 | 118.73978 | 277 ft | 125 kts | 92° |
| 2026-04-21 03:03 | 9.74257 | 118.74857 | 109 ft | 124 kts | 92° |
| 2026-04-21 03:03 | 9.74222 | 118.75637 | 60 ft | 78 kts | 94° |
| 2026-04-21 03:03 | 9.74213 | 118.75924 | 57 ft | 18 kts | 84° |
| 2026-04-21 03:03 | 9.74214 | 118.76015 | 56 ft | 8 kts | 110° |
| 2026-04-21 03:04 | 9.74193 | 118.76073 | 54 ft | 7 kts | 46° |
| 2026-04-21 03:04 | 9.74208 | 118.76038 | 55 ft | 10 kts | 270° |
| 2026-04-21 03:04 | 9.74210 | 118.75934 | 56 ft | 18 kts | 272° |
| 2026-04-21 03:04 | 9.74216 | 118.75793 | 59 ft | 20 kts | 272° |
| 2026-04-21 03:05 | 9.74221 | 118.75650 | 60 ft | 19 kts | 273° |
| 2026-04-21 03:05 | 9.74228 | 118.75512 | 62 ft | 19 kts | 273° |
| 2026-04-21 03:05 | 9.74234 | 118.75383 | 64 ft | 17 kts | 272° |
| 2026-04-21 03:05 | 9.74238 | 118.75291 | 65 ft | 8 kts | 281° |
| 2026-04-21 03:06 | 9.74281 | 118.75253 | 66 ft | 8 kts | 354° |
| 2026-04-21 03:06 | 9.74343 | 118.75255 | 67 ft | 8 kts | 3° |
| 2026-04-21 03:06 | 9.74393 | 118.75240 | 69 ft | 7 kts | 307° |
| 2026-04-21 03:06 | 9.74406 | 118.75188 | 70 ft | 7 kts | 275° |
| 2026-04-21 03:07 | 9.74410 | 118.75138 | 71 ft | 6 kts | 272° |
| 2026-04-21 03:07 | 9.74421 | 118.75118 | 71 ft | 3 kts | 336° |
| 2026-04-21 03:07 | 9.74446 | 118.75114 | 72 ft | 4 kts | 1° |
| 2026-04-21 03:07 | 9.74474 | 118.75115 | 72 ft | 3 kts | 2° |
| 2026-04-21 03:08 | 9.74498 | 118.75117 | 73 ft | 2 kts | 2° |
| 2026-04-21 03:08 | 9.74507 | 118.75117 | 73 ft | 0 kts | 2° |